sensor_id;sensor_type;location;lat;lon;timestamp;P1;durP1;ratioP1;P2;durP2;ratioP2
25107;SDS011;13090;53.422;7.670;2023-06-10T00:01:46;7.38;;;3.72;;
25107;SDS011;13090;53.422;7.670;2023-06-10T00:07:09;8.38;;;3.30;;
25107;SDS011;13090;53.422;7.670;2023-06-10T00:12:30;5.45;;;3.40;;
25107;SDS011;13090;53.422;7.670;2023-06-10T00:17:51;6.75;;;3.72;;
25107;SDS011;13090;53.422;7.670;2023-06-10T00:23:13;6.63;;;3.60;;
25107;SDS011;13090;53.422;7.670;2023-06-10T00:28:34;5.65;;;3.10;;
25107;SDS011;13090;53.422;7.670;2023-06-10T00:33:55;4.90;;;3.00;;
25107;SDS011;13090;53.422;7.670;2023-06-10T00:39:17;5.65;;;3.00;;
25107;SDS011;13090;53.422;7.670;2023-06-10T00:44:38;5.53;;;2.80;;
25107;SDS011;13090;53.422;7.670;2023-06-10T00:49:59;5.55;;;2.78;;
25107;SDS011;13090;53.422;7.670;2023-06-10T00:55:21;5.38;;;2.95;;
25107;SDS011;13090;53.422;7.670;2023-06-10T01:00:43;6.45;;;3.20;;
25107;SDS011;13090;53.422;7.670;2023-06-10T01:06:06;7.57;;;3.35;;
25107;SDS011;13090;53.422;7.670;2023-06-10T01:11:47;4.75;;;3.03;;
25107;SDS011;13090;53.422;7.670;2023-06-10T01:17:12;6.15;;;3.17;;
25107;SDS011;13090;53.422;7.670;2023-06-10T01:22:35;4.00;;;2.88;;
25107;SDS011;13090;53.422;7.670;2023-06-10T01:27:58;5.70;;;2.85;;
25107;SDS011;13090;53.422;7.670;2023-06-10T01:33:25;5.63;;;2.72;;
25107;SDS011;13090;53.422;7.670;2023-06-10T01:38:51;7.55;;;3.55;;
25107;SDS011;13090;53.422;7.670;2023-06-10T01:44:16;9.68;;;3.53;;
25107;SDS011;13090;53.422;7.670;2023-06-10T01:49:38;6.00;;;3.03;;
25107;SDS011;13090;53.422;7.670;2023-06-10T01:55:00;5.50;;;3.35;;
25107;SDS011;13090;53.422;7.670;2023-06-10T02:00:21;7.25;;;3.70;;
25107;SDS011;13090;53.422;7.670;2023-06-10T02:05:42;6.45;;;3.20;;
25107;SDS011;13090;53.422;7.670;2023-06-10T02:11:05;6.10;;;3.50;;
25107;SDS011;13090;53.422;7.670;2023-06-10T02:16:26;6.10;;;3.15;;
25107;SDS011;13090;53.422;7.670;2023-06-10T02:21:47;7.32;;;3.25;;
25107;SDS011;13090;53.422;7.670;2023-06-10T02:27:09;4.03;;;3.03;;
25107;SDS011;13090;53.422;7.670;2023-06-10T02:32:30;4.88;;;2.92;;
25107;SDS011;13090;53.422;7.670;2023-06-10T02:37:50;5.10;;;3.30;;
25107;SDS011;13090;53.422;7.670;2023-06-10T02:43:13;4.78;;;3.20;;
25107;SDS011;13090;53.422;7.670;2023-06-10T02:48:40;5.60;;;2.95;;
25107;SDS011;13090;53.422;7.670;2023-06-10T02:54:02;5.03;;;3.03;;
25107;SDS011;13090;53.422;7.670;2023-06-10T02:59:24;5.25;;;3.10;;
25107;SDS011;13090;53.422;7.670;2023-06-10T03:04:45;6.60;;;3.08;;
25107;SDS011;13090;53.422;7.670;2023-06-10T03:10:06;10.63;;;3.85;;
25107;SDS011;13090;53.422;7.670;2023-06-10T03:15:29;11.20;;;3.85;;
25107;SDS011;13090;53.422;7.670;2023-06-10T03:20:50;5.80;;;3.45;;
25107;SDS011;13090;53.422;7.670;2023-06-10T03:26:11;7.60;;;3.92;;
25107;SDS011;13090;53.422;7.670;2023-06-10T03:31:34;8.02;;;3.78;;
25107;SDS011;13090;53.422;7.670;2023-06-10T03:36:56;13.90;;;4.28;;
25107;SDS011;13090;53.422;7.670;2023-06-10T03:42:17;5.78;;;4.00;;
25107;SDS011;13090;53.422;7.670;2023-06-10T03:47:39;11.85;;;5.25;;
25107;SDS011;13090;53.422;7.670;2023-06-10T03:53:00;9.90;;;5.03;;
25107;SDS011;13090;53.422;7.670;2023-06-10T03:58:21;8.70;;;4.10;;
25107;SDS011;13090;53.422;7.670;2023-06-10T04:03:43;7.47;;;3.50;;
25107;SDS011;13090;53.422;7.670;2023-06-10T04:09:05;9.35;;;4.43;;
25107;SDS011;13090;53.422;7.670;2023-06-10T04:14:25;9.68;;;5.50;;
25107;SDS011;13090;53.422;7.670;2023-06-10T04:19:48;9.02;;;4.75;;
25107;SDS011;13090;53.422;7.670;2023-06-10T04:25:08;9.15;;;4.22;;
25107;SDS011;13090;53.422;7.670;2023-06-10T04:30:31;10.27;;;4.68;;
25107;SDS011;13090;53.422;7.670;2023-06-10T04:35:53;7.22;;;4.88;;
25107;SDS011;13090;53.422;7.670;2023-06-10T04:41:14;10.38;;;4.57;;
25107;SDS011;13090;53.422;7.670;2023-06-10T04:46:35;10.57;;;5.25;;
25107;SDS011;13090;53.422;7.670;2023-06-10T04:51:57;11.48;;;4.75;;
25107;SDS011;13090;53.422;7.670;2023-06-10T04:57:18;6.85;;;3.80;;
25107;SDS011;13090;53.422;7.670;2023-06-10T05:02:39;13.43;;;4.78;;
25107;SDS011;13090;53.422;7.670;2023-06-10T05:08:01;10.00;;;3.97;;
25107;SDS011;13090;53.422;7.670;2023-06-10T05:13:27;7.38;;;3.60;;
25107;SDS011;13090;53.422;7.670;2023-06-10T05:18:48;8.02;;;3.80;;
25107;SDS011;13090;53.422;7.670;2023-06-10T05:24:10;10.38;;;3.45;;
25107;SDS011;13090;53.422;7.670;2023-06-10T05:29:31;11.30;;;3.65;;
25107;SDS011;13090;53.422;7.670;2023-06-10T05:34:53;5.38;;;2.40;;
25107;SDS011;13090;53.422;7.670;2023-06-10T05:40:15;8.35;;;3.20;;
25107;SDS011;13090;53.422;7.670;2023-06-10T05:45:37;5.13;;;2.63;;
25107;SDS011;13090;53.422;7.670;2023-06-10T05:50:58;7.65;;;3.38;;
25107;SDS011;13090;53.422;7.670;2023-06-10T05:56:20;6.20;;;3.03;;
25107;SDS011;13090;53.422;7.670;2023-06-10T06:01:40;6.22;;;2.60;;
25107;SDS011;13090;53.422;7.670;2023-06-10T06:07:01;6.22;;;2.80;;
25107;SDS011;13090;53.422;7.670;2023-06-10T06:12:24;7.43;;;2.72;;
25107;SDS011;13090;53.422;7.670;2023-06-10T06:17:45;5.40;;;2.30;;
25107;SDS011;13090;53.422;7.670;2023-06-10T06:23:05;6.68;;;2.90;;
25107;SDS011;13090;53.422;7.670;2023-06-10T06:28:28;9.20;;;2.55;;
25107;SDS011;13090;53.422;7.670;2023-06-10T06:33:49;7.63;;;3.42;;
25107;SDS011;13090;53.422;7.670;2023-06-10T06:39:09;8.80;;;3.40;;
25107;SDS011;13090;53.422;7.670;2023-06-10T06:44:31;9.25;;;2.70;;
25107;SDS011;13090;53.422;7.670;2023-06-10T06:49:53;6.68;;;2.63;;
25107;SDS011;13090;53.422;7.670;2023-06-10T06:55:13;7.25;;;3.17;;
25107;SDS011;13090;53.422;7.670;2023-06-10T07:00:36;7.75;;;3.30;;
25107;SDS011;13090;53.422;7.670;2023-06-10T07:05:57;5.47;;;2.95;;
25107;SDS011;13090;53.422;7.670;2023-06-10T07:11:18;5.85;;;3.00;;
25107;SDS011;13090;53.422;7.670;2023-06-10T07:16:40;6.72;;;3.08;;
25107;SDS011;13090;53.422;7.670;2023-06-10T07:22:01;6.47;;;3.20;;
25107;SDS011;13090;53.422;7.670;2023-06-10T07:27:22;6.68;;;3.13;;
25107;SDS011;13090;53.422;7.670;2023-06-10T07:32:44;6.40;;;3.13;;
25107;SDS011;13090;53.422;7.670;2023-06-10T07:38:05;6.07;;;2.85;;
25107;SDS011;13090;53.422;7.670;2023-06-10T07:43:26;12.20;;;3.85;;
25107;SDS011;13090;53.422;7.670;2023-06-10T07:48:49;9.13;;;3.22;;
25107;SDS011;13090;53.422;7.670;2023-06-10T07:54:10;5.13;;;2.95;;
25107;SDS011;13090;53.422;7.670;2023-06-10T07:59:30;9.20;;;3.47;;
25107;SDS011;13090;53.422;7.670;2023-06-10T08:04:53;6.45;;;3.05;;
25107;SDS011;13090;53.422;7.670;2023-06-10T08:10:14;6.93;;;2.55;;
25107;SDS011;13090;53.422;7.670;2023-06-10T08:15:35;8.75;;;3.03;;
25107;SDS011;13090;53.422;7.670;2023-06-10T08:20:57;7.50;;;3.40;;
25107;SDS011;13090;53.422;7.670;2023-06-10T08:26:18;16.40;;;4.07;;
25107;SDS011;13090;53.422;7.670;2023-06-10T08:31:41;6.10;;;3.05;;
25107;SDS011;13090;53.422;7.670;2023-06-10T08:37:04;7.93;;;3.53;;
25107;SDS011;13090;53.422;7.670;2023-06-10T08:42:28;5.90;;;3.35;;
25107;SDS011;13090;53.422;7.670;2023-06-10T08:47:53;8.18;;;3.50;;
25107;SDS011;13090;53.422;7.670;2023-06-10T08:53:18;7.63;;;3.65;;
25107;SDS011;13090;53.422;7.670;2023-06-10T08:58:39;4.63;;;2.92;;
25107;SDS011;13090;53.422;7.670;2023-06-10T09:04:01;5.72;;;2.95;;
25107;SDS011;13090;53.422;7.670;2023-06-10T09:09:24;6.10;;;3.20;;
25107;SDS011;13090;53.422;7.670;2023-06-10T09:14:48;9.70;;;3.08;;
25107;SDS011;13090;53.422;7.670;2023-06-10T09:20:10;4.65;;;2.88;;
25107;SDS011;13090;53.422;7.670;2023-06-10T09:25:37;10.52;;;3.63;;
25107;SDS011;13090;53.422;7.670;2023-06-10T09:31:02;4.00;;;2.72;;
25107;SDS011;13090;53.422;7.670;2023-06-10T09:36:24;5.73;;;3.00;;
25107;SDS011;13090;53.422;7.670;2023-06-10T09:41:47;5.50;;;3.20;;
25107;SDS011;13090;53.422;7.670;2023-06-10T09:47:08;4.85;;;2.85;;
25107;SDS011;13090;53.422;7.670;2023-06-10T09:52:29;8.10;;;3.10;;
25107;SDS011;13090;53.422;7.670;2023-06-10T09:57:52;9.63;;;3.85;;
25107;SDS011;13090;53.422;7.670;2023-06-10T10:03:15;6.22;;;3.17;;
25107;SDS011;13090;53.422;7.670;2023-06-10T10:08:43;9.23;;;3.90;;
25107;SDS011;13090;53.422;7.670;2023-06-10T10:14:05;4.85;;;3.08;;
25107;SDS011;13090;53.422;7.670;2023-06-10T10:19:30;5.57;;;3.70;;
25107;SDS011;13090;53.422;7.670;2023-06-10T10:24:53;4.47;;;2.60;;
25107;SDS011;13090;53.422;7.670;2023-06-10T10:30:19;6.65;;;3.10;;
25107;SDS011;13090;53.422;7.670;2023-06-10T10:35:42;4.23;;;3.00;;
25107;SDS011;13090;53.422;7.670;2023-06-10T10:41:04;6.00;;;3.38;;
25107;SDS011;13090;53.422;7.670;2023-06-10T10:46:28;7.80;;;3.63;;
25107;SDS011;13090;53.422;7.670;2023-06-10T10:51:57;5.47;;;2.63;;
25107;SDS011;13090;53.422;7.670;2023-06-10T10:57:19;3.92;;;2.53;;
25107;SDS011;13090;53.422;7.670;2023-06-10T11:02:43;5.80;;;2.90;;
25107;SDS011;13090;53.422;7.670;2023-06-10T11:08:05;5.03;;;3.15;;
25107;SDS011;13090;53.422;7.670;2023-06-10T11:13:27;9.23;;;3.08;;
25107;SDS011;13090;53.422;7.670;2023-06-10T11:18:51;6.28;;;2.65;;
25107;SDS011;13090;53.422;7.670;2023-06-10T11:24:14;5.40;;;2.90;;
25107;SDS011;13090;53.422;7.670;2023-06-10T11:29:36;6.60;;;2.88;;
25107;SDS011;13090;53.422;7.670;2023-06-10T11:34:58;8.48;;;3.33;;
25107;SDS011;13090;53.422;7.670;2023-06-10T11:40:20;10.23;;;3.53;;
25107;SDS011;13090;53.422;7.670;2023-06-10T11:45:41;6.70;;;3.33;;
25107;SDS011;13090;53.422;7.670;2023-06-10T11:51:06;7.97;;;3.50;;
25107;SDS011;13090;53.422;7.670;2023-06-10T11:56:27;6.80;;;3.27;;
25107;SDS011;13090;53.422;7.670;2023-06-10T12:01:49;5.45;;;2.70;;
25107;SDS011;13090;53.422;7.670;2023-06-10T12:07:16;4.75;;;2.55;;
25107;SDS011;13090;53.422;7.670;2023-06-10T12:12:37;7.53;;;2.50;;
25107;SDS011;13090;53.422;7.670;2023-06-10T12:17:58;6.53;;;2.25;;
25107;SDS011;13090;53.422;7.670;2023-06-10T12:23:21;3.97;;;2.47;;
25107;SDS011;13090;53.422;7.670;2023-06-10T12:28:50;4.95;;;2.03;;
25107;SDS011;13090;53.422;7.670;2023-06-10T12:34:12;4.63;;;2.20;;
25107;SDS011;13090;53.422;7.670;2023-06-10T12:39:34;9.85;;;2.42;;
25107;SDS011;13090;53.422;7.670;2023-06-10T12:44:55;6.15;;;2.42;;
25107;SDS011;13090;53.422;7.670;2023-06-10T12:50:17;4.65;;;2.15;;
25107;SDS011;13090;53.422;7.670;2023-06-10T12:55:39;4.10;;;2.13;;
25107;SDS011;13090;53.422;7.670;2023-06-10T13:01:00;8.43;;;2.60;;
25107;SDS011;13090;53.422;7.670;2023-06-10T13:06:21;4.60;;;2.40;;
25107;SDS011;13090;53.422;7.670;2023-06-10T13:11:43;8.27;;;2.70;;
25107;SDS011;13090;53.422;7.670;2023-06-10T13:17:04;7.10;;;2.47;;
25107;SDS011;13090;53.422;7.670;2023-06-10T13:22:26;7.13;;;2.00;;
25107;SDS011;13090;53.422;7.670;2023-06-10T13:27:49;4.07;;;2.20;;
25107;SDS011;13090;53.422;7.670;2023-06-10T13:33:10;4.47;;;2.42;;
25107;SDS011;13090;53.422;7.670;2023-06-10T13:38:31;4.35;;;2.20;;
25107;SDS011;13090;53.422;7.670;2023-06-10T13:43:53;5.38;;;2.55;;
25107;SDS011;13090;53.422;7.670;2023-06-10T13:49:14;7.40;;;2.42;;
25107;SDS011;13090;53.422;7.670;2023-06-10T13:54:36;6.10;;;2.20;;
25107;SDS011;13090;53.422;7.670;2023-06-10T13:59:58;4.78;;;1.83;;
25107;SDS011;13090;53.422;7.670;2023-06-10T14:05:20;4.97;;;2.10;;
25107;SDS011;13090;53.422;7.670;2023-06-10T14:10:41;7.78;;;2.20;;
25107;SDS011;13090;53.422;7.670;2023-06-10T14:16:03;4.93;;;1.80;;
25107;SDS011;13090;53.422;7.670;2023-06-10T14:21:24;3.78;;;1.80;;
25107;SDS011;13090;53.422;7.670;2023-06-10T14:26:45;3.15;;;1.98;;
25107;SDS011;13090;53.422;7.670;2023-06-10T14:32:09;4.97;;;2.08;;
25107;SDS011;13090;53.422;7.670;2023-06-10T14:37:30;5.97;;;1.70;;
25107;SDS011;13090;53.422;7.670;2023-06-10T14:42:52;2.53;;;1.67;;
25107;SDS011;13090;53.422;7.670;2023-06-10T14:48:14;3.38;;;1.70;;
25107;SDS011;13090;53.422;7.670;2023-06-10T14:53:35;5.55;;;1.75;;
25107;SDS011;13090;53.422;7.670;2023-06-10T14:58:56;4.82;;;1.70;;
25107;SDS011;13090;53.422;7.670;2023-06-10T15:04:18;4.82;;;1.65;;
25107;SDS011;13090;53.422;7.670;2023-06-10T15:09:43;3.67;;;1.55;;
25107;SDS011;13090;53.422;7.670;2023-06-10T15:15:04;4.40;;;1.75;;
25107;SDS011;13090;53.422;7.670;2023-06-10T15:20:27;4.13;;;2.00;;
25107;SDS011;13090;53.422;7.670;2023-06-10T15:25:48;3.28;;;1.80;;
25107;SDS011;13090;53.422;7.670;2023-06-10T15:31:11;6.60;;;1.77;;
25107;SDS011;13090;53.422;7.670;2023-06-10T15:36:33;2.30;;;1.40;;
25107;SDS011;13090;53.422;7.670;2023-06-10T15:41:54;4.00;;;1.80;;
25107;SDS011;13090;53.422;7.670;2023-06-10T15:47:15;4.15;;;1.80;;
25107;SDS011;13090;53.422;7.670;2023-06-10T15:52:37;2.20;;;1.52;;
25107;SDS011;13090;53.422;7.670;2023-06-10T15:57:58;4.88;;;1.70;;
25107;SDS011;13090;53.422;7.670;2023-06-10T16:03:19;4.43;;;1.70;;
25107;SDS011;13090;53.422;7.670;2023-06-10T16:08:41;4.68;;;2.30;;
25107;SDS011;13090;53.422;7.670;2023-06-10T16:14:02;3.67;;;1.63;;
25107;SDS011;13090;53.422;7.670;2023-06-10T16:19:23;4.07;;;1.42;;
25107;SDS011;13090;53.422;7.670;2023-06-10T16:24:45;4.18;;;2.00;;
25107;SDS011;13090;53.422;7.670;2023-06-10T16:30:07;3.45;;;1.83;;
25107;SDS011;13090;53.422;7.670;2023-06-10T16:35:28;5.28;;;2.80;;
25107;SDS011;13090;53.422;7.670;2023-06-10T16:40:50;5.85;;;2.45;;
25107;SDS011;13090;53.422;7.670;2023-06-10T16:46:12;5.93;;;2.42;;
25107;SDS011;13090;53.422;7.670;2023-06-10T16:51:32;6.22;;;2.88;;
25107;SDS011;13090;53.422;7.670;2023-06-10T16:56:55;5.00;;;2.20;;
25107;SDS011;13090;53.422;7.670;2023-06-10T17:02:16;3.80;;;1.98;;
25107;SDS011;13090;53.422;7.670;2023-06-10T17:07:37;3.35;;;1.58;;
25107;SDS011;13090;53.422;7.670;2023-06-10T17:12:59;6.63;;;1.73;;
25107;SDS011;13090;53.422;7.670;2023-06-10T17:18:20;3.95;;;2.00;;
25107;SDS011;13090;53.422;7.670;2023-06-10T17:23:41;3.65;;;1.52;;
25107;SDS011;13090;53.422;7.670;2023-06-10T17:29:03;4.32;;;1.88;;
25107;SDS011;13090;53.422;7.670;2023-06-10T17:34:26;5.10;;;1.90;;
25107;SDS011;13090;53.422;7.670;2023-06-10T17:39:47;4.80;;;1.88;;
25107;SDS011;13090;53.422;7.670;2023-06-10T17:45:11;9.38;;;4.35;;
25107;SDS011;13090;53.422;7.670;2023-06-10T17:50:33;5.53;;;3.40;;
25107;SDS011;13090;53.422;7.670;2023-06-10T17:55:53;4.00;;;2.13;;
25107;SDS011;13090;53.422;7.670;2023-06-10T18:01:17;4.97;;;2.33;;
25107;SDS011;13090;53.422;7.670;2023-06-10T18:06:39;3.53;;;2.38;;
25107;SDS011;13090;53.422;7.670;2023-06-10T18:12:00;7.40;;;2.08;;
25107;SDS011;13090;53.422;7.670;2023-06-10T18:17:22;8.98;;;2.92;;
25107;SDS011;13090;53.422;7.670;2023-06-10T18:22:43;6.72;;;2.30;;
25107;SDS011;13090;53.422;7.670;2023-06-10T18:28:04;8.98;;;2.80;;
25107;SDS011;13090;53.422;7.670;2023-06-10T18:33:27;4.43;;;1.95;;
25107;SDS011;13090;53.422;7.670;2023-06-10T18:38:48;16.08;;;2.55;;
25107;SDS011;13090;53.422;7.670;2023-06-10T18:44:10;4.50;;;2.53;;
25107;SDS011;13090;53.422;7.670;2023-06-10T18:49:33;10.57;;;2.70;;
25107;SDS011;13090;53.422;7.670;2023-06-10T18:54:55;3.47;;;2.40;;
25107;SDS011;13090;53.422;7.670;2023-06-10T19:00:18;8.40;;;2.42;;
25107;SDS011;13090;53.422;7.670;2023-06-10T19:05:44;8.05;;;2.45;;
25107;SDS011;13090;53.422;7.670;2023-06-10T19:11:06;7.18;;;2.20;;
25107;SDS011;13090;53.422;7.670;2023-06-10T19:16:30;5.68;;;2.20;;
25107;SDS011;13090;53.422;7.670;2023-06-10T19:21:54;8.15;;;2.15;;
25107;SDS011;13090;53.422;7.670;2023-06-10T19:27:15;6.10;;;3.17;;
25107;SDS011;13090;53.422;7.670;2023-06-10T19:32:35;6.70;;;4.22;;
25107;SDS011;13090;53.422;7.670;2023-06-10T19:37:58;8.35;;;4.95;;
25107;SDS011;13090;53.422;7.670;2023-06-10T19:43:19;7.13;;;2.95;;
25107;SDS011;13090;53.422;7.670;2023-06-10T19:48:41;6.03;;;2.88;;
25107;SDS011;13090;53.422;7.670;2023-06-10T19:54:03;7.13;;;3.10;;
25107;SDS011;13090;53.422;7.670;2023-06-10T19:59:24;12.38;;;3.22;;
25107;SDS011;13090;53.422;7.670;2023-06-10T20:04:45;6.32;;;2.70;;
25107;SDS011;13090;53.422;7.670;2023-06-10T20:10:08;4.97;;;3.00;;
25107;SDS011;13090;53.422;7.670;2023-06-10T20:15:29;8.52;;;3.50;;
25107;SDS011;13090;53.422;7.670;2023-06-10T20:20:50;6.25;;;2.80;;
25107;SDS011;13090;53.422;7.670;2023-06-10T20:26:15;9.43;;;3.47;;
25107;SDS011;13090;53.422;7.670;2023-06-10T20:31:36;11.40;;;3.33;;
25107;SDS011;13090;53.422;7.670;2023-06-10T20:36:57;10.07;;;3.70;;
25107;SDS011;13090;53.422;7.670;2023-06-10T20:42:19;8.90;;;3.50;;
25107;SDS011;13090;53.422;7.670;2023-06-10T20:47:40;5.55;;;2.92;;
25107;SDS011;13090;53.422;7.670;2023-06-10T20:53:01;7.93;;;3.15;;
25107;SDS011;13090;53.422;7.670;2023-06-10T20:58:24;9.98;;;3.25;;
25107;SDS011;13090;53.422;7.670;2023-06-10T21:03:45;10.20;;;3.15;;
25107;SDS011;13090;53.422;7.670;2023-06-10T21:09:05;5.68;;;3.10;;
25107;SDS011;13090;53.422;7.670;2023-06-10T21:14:28;6.55;;;3.42;;
25107;SDS011;13090;53.422;7.670;2023-06-10T21:19:49;5.60;;;3.10;;
25107;SDS011;13090;53.422;7.670;2023-06-10T21:25:10;7.28;;;3.15;;
25107;SDS011;13090;53.422;7.670;2023-06-10T21:30:33;7.60;;;2.70;;
25107;SDS011;13090;53.422;7.670;2023-06-10T21:35:55;8.88;;;3.67;;
25107;SDS011;13090;53.422;7.670;2023-06-10T21:41:16;9.10;;;3.20;;
25107;SDS011;13090;53.422;7.670;2023-06-10T21:46:38;7.03;;;2.88;;
25107;SDS011;13090;53.422;7.670;2023-06-10T21:51:59;5.78;;;2.90;;
25107;SDS011;13090;53.422;7.670;2023-06-10T21:57:20;6.85;;;3.08;;
25107;SDS011;13090;53.422;7.670;2023-06-10T22:02:43;7.15;;;3.38;;
25107;SDS011;13090;53.422;7.670;2023-06-10T22:08:05;7.32;;;2.97;;
25107;SDS011;13090;53.422;7.670;2023-06-10T22:13:25;9.90;;;3.33;;
25107;SDS011;13090;53.422;7.670;2023-06-10T22:18:48;5.03;;;3.30;;
25107;SDS011;13090;53.422;7.670;2023-06-10T22:24:09;8.98;;;2.88;;
25107;SDS011;13090;53.422;7.670;2023-06-10T22:29:29;11.27;;;3.28;;
25107;SDS011;13090;53.422;7.670;2023-06-10T22:34:52;8.93;;;3.17;;
25107;SDS011;13090;53.422;7.670;2023-06-10T22:40:13;6.18;;;2.97;;
25107;SDS011;13090;53.422;7.670;2023-06-10T22:45:33;6.30;;;3.08;;
25107;SDS011;13090;53.422;7.670;2023-06-10T22:50:56;9.13;;;3.78;;
25107;SDS011;13090;53.422;7.670;2023-06-10T22:56:17;9.27;;;3.20;;
25107;SDS011;13090;53.422;7.670;2023-06-10T23:01:38;10.45;;;3.50;;
25107;SDS011;13090;53.422;7.670;2023-06-10T23:07:00;7.68;;;2.95;;
25107;SDS011;13090;53.422;7.670;2023-06-10T23:12:20;10.43;;;3.00;;
25107;SDS011;13090;53.422;7.670;2023-06-10T23:17:41;6.10;;;2.97;;
25107;SDS011;13090;53.422;7.670;2023-06-10T23:23:04;5.07;;;2.92;;
25107;SDS011;13090;53.422;7.670;2023-06-10T23:28:25;6.40;;;3.28;;
25107;SDS011;13090;53.422;7.670;2023-06-10T23:33:46;15.50;;;3.42;;
25107;SDS011;13090;53.422;7.670;2023-06-10T23:39:09;9.02;;;3.13;;
25107;SDS011;13090;53.422;7.670;2023-06-10T23:44:30;10.10;;;3.47;;
25107;SDS011;13090;53.422;7.670;2023-06-10T23:49:52;7.10;;;3.20;;
25107;SDS011;13090;53.422;7.670;2023-06-10T23:55:14;10.80;;;4.35;;
